Stapelmoor — V2BU8 — position and weather

sailwx.info

Track history (hours):
 
Tides and Currents Weather Stations Pressure Air Temp Water Temp Dewpoint Dewpoint Depression Visibility Wind Speed Wind Dir Waves Ship Positions

Stapelmoor

Last reported at 2018-Jan-20 14:38 UTC. Time now 2018-Jan-22 02:39 UTC.
Position N 36°42' E 014°39'.

Length 80 m; draft 4.3 m.

Type: Ship. MMSI: 304932000.

Date/timePositionNaut miles runAvg speedWind from/ knotsBaromVisibWave heightAir tempDewpointWater temp
2018-Jan-20 14:38N 36°42' E 014°39'210.3
2018-Jan-20 14:29N 36°42' E 014°37'510.5
2018-Jan-20 14:00N 36°43' E 014°31'510.8
2018-Jan-20 13:30N 36°45' E 014°25'510.8
2018-Jan-20 13:00N 36°47' E 014°19'610.9
2018-Jan-20 12:30N 36°49' E 014°13'  
2018-Jan-12 14:58N 43°04' E 003°56'120 7.2
2018-Jan-11 22:16N 41°23' E 002°29'3 9.9
2018-Jan-11 22:00N 41°21' E 002°26'5 9.9
2018-Jan-11 21:30N 41°18' E 002°20'510.0
2018-Jan-11 21:00N 41°15' E 002°15'5 9.5
2018-Jan-11 20:31N 41°13' E 002°10'5 9.2
2018-Jan-11 20:00N 41°12' E 002°04'5 9.3
2018-Jan-11 19:30N 41°12' E 001°58'5 9.5
2018-Jan-11 19:00N 41°12' E 001°51'5 9.3
2018-Jan-11 18:30N 41°12' E 001°45'1 2.7
2018-Jan-11 18:00N 41°13' E 001°44'0 0.0
2018-Jan-11 17:30N 41°13' E 001°44'0 0.0
2018-Jan-11 16:36N 41°13' E 001°44'0 0.0
2018-Jan-11 16:21N 41°13' E 001°44'0 0.0
2018-Jan-11 15:54N 41°13' E 001°44'0 0.0
2018-Jan-11 15:24N 41°13' E 001°44'0 0.0
2018-Jan-11 14:54N 41°13' E 001°44'0 0.0
2018-Jan-11 14:24N 41°13' E 001°44'0 0.0
2018-Jan-11 13:54N 41°13' E 001°44'0 0.0
2018-Jan-11 13:24N 41°13' E 001°44'0 0.0
2018-Jan-11 12:57N 41°13' E 001°44'0 0.0
2018-Jan-11 12:27N 41°13' E 001°44'0 0.0
2018-Jan-11 11:57N 41°13' E 001°44'0 0.0
2018-Jan-11 11:12N 41°13' E 001°44'0 0.0
2018-Jan-11 10:57N 41°13' E 001°44'0 0.0
2018-Jan-11 10:30N 41°13' E 001°44'0 0.0
2018-Jan-11 10:00N 41°13' E 001°44'0 0.0
2018-Jan-11 09:30N 41°13' E 001°44'0 0.0
2018-Jan-11 09:00N 41°13' E 001°44'0 0.0
2018-Jan-11 08:30N 41°13' E 001°44'0 0.0
2018-Jan-11 08:00N 41°13' E 001°44'0 0.0
2018-Jan-11 07:30N 41°13' E 001°44'0 0.0
2018-Jan-11 07:00N 41°13' E 001°44'0 0.0
2018-Jan-11 06:30N 41°13' E 001°44'1 2.2
2018-Jan-11 06:00N 41°12' E 001°43'3 6.6
2018-Jan-11 05:30N 41°09' E 001°41'3 6.7
2018-Jan-11 05:00N 41°06' E 001°38'3 6.8
2018-Jan-11 04:30N 41°04' E 001°35'  
Track history (hours):
 
Tides and Currents Weather Stations Pressure Air Temp Water Temp Dewpoint Dewpoint Depression Visibility Wind Speed Wind Dir Waves Ship Positions

Stapelmoor

Last reported at 2018-Jan-20 14:38 UTC. Time now 2018-Jan-22 02:39 UTC.
Position N 36°42' E 014°39'.

Length 80 m; draft 4.3 m.

Type: Ship. MMSI: 304932000.

Date/timePositionNaut miles runAvg speedWind from/ knotsBaromVisibWave heightAir tempDewpointWater temp
2018-Jan-20 14:38N 36°42' E 014°39'210.3
2018-Jan-20 14:29N 36°42' E 014°37'510.5
2018-Jan-20 14:00N 36°43' E 014°31'510.8
2018-Jan-20 13:30N 36°45' E 014°25'510.8
2018-Jan-20 13:00N 36°47' E 014°19'610.9
2018-Jan-20 12:30N 36°49' E 014°13'  
2018-Jan-12 14:58N 43°04' E 003°56'120 7.2
2018-Jan-11 22:16N 41°23' E 002°29'3 9.9
2018-Jan-11 22:00N 41°21' E 002°26'5 9.9
2018-Jan-11 21:30N 41°18' E 002°20'510.0
2018-Jan-11 21:00N 41°15' E 002°15'5 9.5
2018-Jan-11 20:31N 41°13' E 002°10'5 9.2
2018-Jan-11 20:00N 41°12' E 002°04'5 9.3
2018-Jan-11 19:30N 41°12' E 001°58'5 9.5
2018-Jan-11 19:00N 41°12' E 001°51'5 9.3
2018-Jan-11 18:30N 41°12' E 001°45'1 2.7
2018-Jan-11 18:00N 41°13' E 001°44'0 0.0
2018-Jan-11 17:30N 41°13' E 001°44'0 0.0
2018-Jan-11 16:36N 41°13' E 001°44'0 0.0
2018-Jan-11 16:21N 41°13' E 001°44'0 0.0
2018-Jan-11 15:54N 41°13' E 001°44'0 0.0
2018-Jan-11 15:24N 41°13' E 001°44'0 0.0
2018-Jan-11 14:54N 41°13' E 001°44'0 0.0
2018-Jan-11 14:24N 41°13' E 001°44'0 0.0
2018-Jan-11 13:54N 41°13' E 001°44'0 0.0
2018-Jan-11 13:24N 41°13' E 001°44'0 0.0
2018-Jan-11 12:57N 41°13' E 001°44'0 0.0
2018-Jan-11 12:27N 41°13' E 001°44'0 0.0
2018-Jan-11 11:57N 41°13' E 001°44'0 0.0
2018-Jan-11 11:12N 41°13' E 001°44'0 0.0
2018-Jan-11 10:57N 41°13' E 001°44'0 0.0
2018-Jan-11 10:30N 41°13' E 001°44'0 0.0
2018-Jan-11 10:00N 41°13' E 001°44'0 0.0
2018-Jan-11 09:30N 41°13' E 001°44'0 0.0
2018-Jan-11 09:00N 41°13' E 001°44'0 0.0
2018-Jan-11 08:30N 41°13' E 001°44'0 0.0
2018-Jan-11 08:00N 41°13' E 001°44'0 0.0
2018-Jan-11 07:30N 41°13' E 001°44'0 0.0
2018-Jan-11 07:00N 41°13' E 001°44'0 0.0
2018-Jan-11 06:30N 41°13' E 001°44'1 2.2
2018-Jan-11 06:00N 41°12' E 001°43'3 6.6
2018-Jan-11 05:30N 41°09' E 001°41'3 6.7
2018-Jan-11 05:00N 41°06' E 001°38'3 6.8
2018-Jan-11 04:30N 41°04' E 001°35'  

Dump ship's entire track history